createdAt,value
2019-01-10T00:00:00.840Z,1011.22
2019-01-10T00:01:10.535Z,1011.23
2019-01-10T00:02:19.968Z,1011.21
2019-01-10T00:03:29.901Z,1011.25
2019-01-10T00:04:39.587Z,1011.3
2019-01-10T00:05:49.544Z,1011.33
2019-01-10T00:06:59.474Z,1011.35
2019-01-10T00:08:09.415Z,1011.35
2019-01-10T00:09:18.593Z,1011.34
2019-01-10T00:10:28.704Z,1011.37
2019-01-10T00:11:38.658Z,1011.4
2019-01-10T00:12:48.344Z,1011.36
2019-01-10T00:13:58.283Z,1011.39
2019-01-10T00:15:07.980Z,1011.43
2019-01-10T00:16:17.674Z,1011.41
2019-01-10T00:17:27.413Z,1011.45
2019-01-10T00:18:37.116Z,1011.44
2019-01-10T00:19:47.055Z,1011.46
2019-01-10T00:20:56.993Z,1011.46
2019-01-10T00:22:06.938Z,1011.45
2019-01-10T00:23:16.879Z,1011.49
2019-01-10T00:24:26.320Z,1011.48
2019-01-10T00:25:35.759Z,1011.52
2019-01-10T00:26:45.454Z,1011.5
2019-01-10T00:27:55.415Z,1011.42
2019-01-10T00:29:05.111Z,1011.5
2019-01-10T00:30:14.794Z,1011.51
2019-01-10T00:31:24.729Z,1011.58
2019-01-10T00:32:34.668Z,1011.58
2019-01-10T00:33:44.622Z,1011.6
2019-01-10T00:34:54.334Z,1011.62
2019-01-10T00:36:03.756Z,1011.61
2019-01-10T00:37:13.748Z,1011.61
2019-01-10T00:38:23.690Z,1011.65
2019-01-10T00:39:33.655Z,1011.6
2019-01-10T00:40:44.815Z,1011.56
2019-01-10T00:41:54.781Z,1011.64
2019-01-10T00:43:04.724Z,1011.65
2019-01-10T00:44:14.664Z,1011.68
2019-01-10T00:45:24.592Z,1011.64
2019-01-10T00:46:34.631Z,1011.63
2019-01-10T00:47:44.556Z,1011.59
2019-01-10T00:48:54.503Z,1011.68
2019-01-10T00:50:04.211Z,1011.58
2019-01-10T00:51:13.992Z,1011.71
2019-01-10T00:52:23.925Z,1011.71
2019-01-10T00:53:33.868Z,1011.68
2019-01-10T00:54:43.804Z,1011.77
2019-01-10T00:55:53.732Z,1011.78
2019-01-10T00:57:03.669Z,1011.79
2019-01-10T00:58:13.614Z,1011.8
2019-01-10T00:59:23.568Z,1011.84
2019-01-10T01:00:33.255Z,1011.78
2019-01-10T01:01:43.198Z,1011.84
2019-01-10T01:02:53.243Z,1011.74
2019-01-10T01:04:03.182Z,1011.85
2019-01-10T01:05:13.126Z,1011.81
2019-01-10T01:06:23.068Z,1011.89
2019-01-10T01:07:33.007Z,1011.86
2019-01-10T01:08:43.036Z,1011.93
2019-01-10T01:09:52.739Z,1011.95
2019-01-10T01:11:02.684Z,1011.86
2019-01-10T01:12:12.626Z,1011.88
2019-01-10T01:13:22.568Z,1011.96
2019-01-10T01:14:32.260Z,1011.99
2019-01-10T01:15:42.204Z,1012.05
2019-01-10T01:16:51.980Z,1012.05
2019-01-10T01:18:01.666Z,1012.03
2019-01-10T01:19:11.112Z,1012.07
2019-01-10T01:20:21.126Z,1012.12
2019-01-10T01:21:30.922Z,1012.04
2019-01-10T01:22:40.859Z,1012.19
2019-01-10T01:23:50.550Z,1012.12
2019-01-10T01:25:00.501Z,1012.22
2019-01-10T01:26:10.186Z,1012.25
2019-01-10T01:27:19.882Z,1012.22
2019-01-10T01:28:29.584Z,1012.22
2019-01-10T01:29:39.527Z,1012.28
2019-01-10T01:30:49.460Z,1012.32
2019-01-10T01:31:59.411Z,1012.27
2019-01-10T01:33:09.096Z,1012.29
2019-01-10T01:34:19.027Z,1012.21
2019-01-10T01:35:28.703Z,1012.27
2019-01-10T01:36:38.732Z,1012.34
2019-01-10T01:37:48.664Z,1012.41
2019-01-10T01:38:58.598Z,1012.41
2019-01-10T01:40:08.322Z,1012.43
2019-01-10T01:41:18.017Z,1012.39
2019-01-10T01:42:27.953Z,1012.38
2019-01-10T01:43:37.889Z,1012.51
2019-01-10T01:44:47.838Z,1012.53
2019-01-10T01:45:57.591Z,1012.5
2019-01-10T01:47:08.349Z,1012.53
2019-01-10T01:48:18.092Z,1012.61
2019-01-10T01:49:27.797Z,1012.62
2019-01-10T01:50:37.494Z,1012.63
2019-01-10T01:51:47.427Z,1012.63
2019-01-10T01:52:57.362Z,1012.66
2019-01-10T01:54:07.291Z,1012.68
2019-01-10T01:55:17.237Z,1012.72
2019-01-10T01:56:27.188Z,1012.71
2019-01-10T01:57:36.870Z,1012.76
2019-01-10T01:58:46.564Z,1012.7
2019-01-10T01:59:56.242Z,1012.79
2019-01-10T02:01:06.282Z,1012.79
2019-01-10T02:02:15.498Z,1012.84
2019-01-10T02:03:25.455Z,1012.86
2019-01-10T02:04:35.157Z,1012.85
2019-01-10T02:05:45.094Z,1012.87
2019-01-10T02:06:54.797Z,1012.89
2019-01-10T02:08:04.731Z,1012.86
2019-01-10T02:09:14.160Z,1012.91
2019-01-10T02:10:23.689Z,1012.93
2019-01-10T02:11:33.640Z,1012.94
2019-01-10T02:12:43.321Z,1012.98
2019-01-10T02:13:53.018Z,1012.9
2019-01-10T02:15:02.717Z,1012.99
2019-01-10T02:16:14.686Z,1013.02
2019-01-10T02:17:24.625Z,1013.03
2019-01-10T02:18:34.310Z,1013.01
2019-01-10T02:19:44.000Z,1013.06
2019-01-10T02:20:53.933Z,1013.08
2019-01-10T02:22:03.872Z,1013.03
2019-01-10T02:23:13.793Z,1013.11
2019-01-10T02:24:23.722Z,1013.04
2019-01-10T02:25:33.410Z,1013.04
2019-01-10T02:26:43.345Z,1013.05
2019-01-10T02:27:53.285Z,1013.07
2019-01-10T02:29:02.980Z,1013.07
2019-01-10T02:30:12.679Z,1013.11
2019-01-10T02:31:22.651Z,1013.1
2019-01-10T02:32:32.359Z,1013.13
2019-01-10T02:33:42.293Z,1013.07
2019-01-10T02:34:51.982Z,1013.13
2019-01-10T02:36:01.931Z,1013.22
2019-01-10T02:37:11.980Z,1013.16
2019-01-10T02:38:21.940Z,1013.15
2019-01-10T02:39:31.643Z,1013.24
2019-01-10T02:40:41.318Z,1013.3
2019-01-10T02:41:51.252Z,1013.22
2019-01-10T02:43:01.208Z,1013.25
2019-01-10T02:44:11.148Z,1013.23
2019-01-10T02:45:21.093Z,1013.21
2019-01-10T02:46:31.047Z,1013.26
2019-01-10T02:47:40.991Z,1013.3
2019-01-10T02:48:50.697Z,1013.26
2019-01-10T02:50:00.393Z,1013.26
2019-01-10T02:51:10.340Z,1013.33
2019-01-10T02:52:20.284Z,1013.33
2019-01-10T02:53:30.265Z,1013.37
2019-01-10T02:54:40.217Z,1013.32
2019-01-10T02:55:49.902Z,1013.3
2019-01-10T02:56:59.606Z,1013.31
2019-01-10T02:58:09.295Z,1013.34
2019-01-10T02:59:19.262Z,1013.29
2019-01-10T03:00:31.438Z,1013.27
2019-01-10T03:01:41.238Z,1013.37
2019-01-10T03:02:50.692Z,1013.33
2019-01-10T03:04:00.713Z,1013.35
2019-01-10T03:05:10.649Z,1013.39
2019-01-10T03:06:20.581Z,1013.34
2019-01-10T03:07:30.279Z,1013.32
2019-01-10T03:08:39.971Z,1013.34
2019-01-10T03:09:50.036Z,1013.39
2019-01-10T03:10:59.227Z,1013.43
2019-01-10T03:12:08.928Z,1013.34
2019-01-10T03:13:18.117Z,1013.3
2019-01-10T03:14:36.865Z,1013.33
2019-01-10T03:15:46.307Z,1013.3
2019-01-10T03:16:55.824Z,1013.36
2019-01-10T03:18:05.807Z,1013.29
2019-01-10T03:19:15.753Z,1013.31
2019-01-10T03:20:25.436Z,1013.37
2019-01-10T03:21:35.396Z,1013.35
2019-01-10T03:22:45.082Z,1013.4
2019-01-10T03:23:54.779Z,1013.29
2019-01-10T03:25:04.501Z,1013.4
2019-01-10T03:26:14.205Z,1013.37
2019-01-10T03:27:24.144Z,1013.36
2019-01-10T03:28:34.073Z,1013.39
2019-01-10T03:29:44.028Z,1013.44
2019-01-10T03:30:53.976Z,1013.4
2019-01-10T03:32:03.735Z,1013.39
2019-01-10T03:33:13.469Z,1013.45
2019-01-10T03:34:23.481Z,1013.52
2019-01-10T03:35:33.175Z,1013.53
2019-01-10T03:36:43.136Z,1013.58
2019-01-10T03:37:53.084Z,1013.47
2019-01-10T03:39:03.024Z,1013.54
2019-01-10T03:40:12.960Z,1013.5
2019-01-10T03:41:22.909Z,1013.52
2019-01-10T03:42:32.848Z,1013.64
2019-01-10T03:43:47.107Z,1013.53
2019-01-10T03:44:57.587Z,1013.58
2019-01-10T03:46:07.534Z,1013.61
2019-01-10T03:47:17.249Z,1013.62
2019-01-10T03:48:27.185Z,1013.51
2019-01-10T03:49:37.132Z,1013.67
2019-01-10T03:50:47.079Z,1013.67
2019-01-10T03:51:56.773Z,1013.63
2019-01-10T03:53:06.467Z,1013.67
2019-01-10T03:54:16.157Z,1013.63
2019-01-10T03:55:26.101Z,1013.66
2019-01-10T03:56:36.041Z,1013.63
2019-01-10T03:57:45.990Z,1013.65
2019-01-10T03:58:55.691Z,1013.51
2019-01-10T04:00:05.638Z,1013.67
2019-01-10T04:01:15.583Z,1013.62
2019-01-10T04:02:25.297Z,1013.61
2019-01-10T04:03:35.257Z,1013.58
2019-01-10T04:04:45.197Z,1013.7
2019-01-10T04:05:55.130Z,1013.66
2019-01-10T04:07:05.081Z,1013.68
2019-01-10T04:08:14.785Z,1013.69
2019-01-10T04:09:24.461Z,1013.66
2019-01-10T04:10:34.427Z,1013.69
2019-01-10T04:11:44.362Z,1013.75
2019-01-10T04:12:54.423Z,1013.6
2019-01-10T04:14:04.116Z,1013.71
2019-01-10T04:15:13.563Z,1013.72
2019-01-10T04:16:23.268Z,1013.75
2019-01-10T04:17:33.225Z,1013.72
2019-01-10T04:18:43.179Z,1013.78
2019-01-10T04:19:55.028Z,1013.85
2019-01-10T04:21:05.094Z,1013.85
2019-01-10T04:22:24.466Z,1013.85
2019-01-10T04:23:34.162Z,1013.83
2019-01-10T04:24:44.105Z,1013.85
2019-01-10T04:25:53.799Z,1013.92
2019-01-10T04:27:03.501Z,1013.92
2019-01-10T04:28:13.189Z,1013.93
2019-01-10T04:29:23.134Z,1013.92
2019-01-10T04:30:33.153Z,1013.88
2019-01-10T04:31:43.067Z,1013.92
2019-01-10T04:32:53.018Z,1013.98
2019-01-10T04:34:02.709Z,1013.97
2019-01-10T04:35:12.648Z,1013.93
2019-01-10T04:36:22.584Z,1013.99
2019-01-10T04:37:33.167Z,1013.97
2019-01-10T04:38:43.110Z,1014.05
2019-01-10T04:39:52.789Z,1014.01
2019-01-10T04:41:02.737Z,1014.06
2019-01-10T04:42:12.696Z,1013.91
2019-01-10T04:43:24.715Z,1014
2019-01-10T04:44:34.162Z,1014.06
2019-01-10T04:45:43.866Z,1013.96
2019-01-10T04:46:53.805Z,1014.04
2019-01-10T04:48:03.487Z,1013.98
2019-01-10T04:49:12.668Z,1014.01
2019-01-10T04:50:22.603Z,1014.02
2019-01-10T04:51:32.301Z,1014.1
2019-01-10T04:52:42.458Z,1014
2019-01-10T04:53:52.402Z,1013.98
2019-01-10T04:55:02.344Z,1013.97
2019-01-10T04:56:12.282Z,1014.08
2019-01-10T04:57:22.211Z,1014.05
2019-01-10T04:58:31.914Z,1014.01
2019-01-10T04:59:41.861Z,1014.05
2019-01-10T05:00:51.567Z,1014.09
2019-01-10T05:02:01.255Z,1014.13
2019-01-10T05:03:21.050Z,1014.13
2019-01-10T05:04:30.990Z,1014.16
2019-01-10T05:05:40.927Z,1014.09
2019-01-10T05:06:50.613Z,1014.17
2019-01-10T05:08:00.299Z,1014.01
2019-01-10T05:09:10.000Z,1014.13
2019-01-10T05:10:19.696Z,1014.12
2019-01-10T05:11:29.403Z,1014.18
2019-01-10T05:12:41.619Z,1014.23
2019-01-10T05:13:51.764Z,1014.19
2019-01-10T05:15:01.467Z,1014.24
2019-01-10T05:16:11.411Z,1014.25
2019-01-10T05:17:21.119Z,1014.19
2019-01-10T05:18:33.307Z,1014.32
2019-01-10T05:19:43.255Z,1014.22
2019-01-10T05:20:53.203Z,1014.25
2019-01-10T05:22:02.896Z,1014.33
2019-01-10T05:23:12.627Z,1014.32
2019-01-10T05:24:22.691Z,1014.35
2019-01-10T05:25:32.635Z,1014.41
2019-01-10T05:26:42.585Z,1014.39
2019-01-10T05:27:52.537Z,1014.4
2019-01-10T05:29:02.472Z,1014.37
2019-01-10T05:30:12.161Z,1014.46
2019-01-10T05:31:22.114Z,1014.49
2019-01-10T05:32:32.047Z,1014.51
2019-01-10T05:33:41.760Z,1014.55
2019-01-10T05:34:51.462Z,1014.54
2019-01-10T05:36:01.408Z,1014.51
2019-01-10T05:37:11.352Z,1014.55
2019-01-10T05:38:21.279Z,1014.61
2019-01-10T05:39:31.211Z,1014.49
2019-01-10T05:40:50.275Z,1014.59
2019-01-10T05:42:01.125Z,1014.6
2019-01-10T05:43:10.581Z,1014.65
2019-01-10T05:44:26.365Z,1014.59
2019-01-10T05:45:36.708Z,1014.66
2019-01-10T05:46:48.536Z,1014.64
2019-01-10T05:47:58.587Z,1014.73
2019-01-10T05:49:08.529Z,1014.64
2019-01-10T05:50:18.441Z,1014.73
2019-01-10T05:51:28.194Z,1014.67
2019-01-10T05:52:38.169Z,1014.82
2019-01-10T05:53:48.110Z,1014.7
2019-01-10T05:54:58.055Z,1014.75
2019-01-10T05:56:15.187Z,1014.79
2019-01-10T05:57:25.689Z,1014.8
2019-01-10T05:58:35.384Z,1014.81
2019-01-10T05:59:47.137Z,1014.77
2019-01-10T06:00:57.070Z,1014.78
2019-01-10T06:02:07.017Z,1014.86
2019-01-10T06:03:16.970Z,1014.76
2019-01-10T06:04:26.912Z,1014.86
2019-01-10T06:05:36.610Z,1014.84
2019-01-10T06:06:46.544Z,1014.84
2019-01-10T06:07:56.491Z,1014.94
2019-01-10T06:09:06.191Z,1014.94
2019-01-10T06:10:16.133Z,1014.89
2019-01-10T06:11:26.073Z,1014.97
2019-01-10T06:12:36.014Z,1014.93
2019-01-10T06:13:45.965Z,1014.96
2019-01-10T06:14:55.668Z,1014.99
2019-01-10T06:16:05.228Z,1015.02
2019-01-10T06:17:15.172Z,1015.02
2019-01-10T06:18:25.119Z,1015.13
2019-01-10T06:19:34.564Z,1015.03
2019-01-10T06:20:44.255Z,1015.11
2019-01-10T06:21:54.210Z,1015.15
2019-01-10T06:23:04.249Z,1015.17
2019-01-10T06:24:14.179Z,1015.16
2019-01-10T06:25:24.129Z,1015.14
2019-01-10T06:26:33.842Z,1015.22
2019-01-10T06:27:43.519Z,1015.28
2019-01-10T06:28:52.953Z,1015.27
2019-01-10T06:30:02.887Z,1015.37
2019-01-10T06:31:12.852Z,1015.3
2019-01-10T06:32:22.290Z,1015.34
2019-01-10T06:33:31.995Z,1015.38
2019-01-10T06:34:41.951Z,1015.39
2019-01-10T06:35:51.667Z,1015.4
2019-01-10T06:37:01.110Z,1015.42
2019-01-10T06:38:11.101Z,1015.38
2019-01-10T06:39:20.806Z,1015.39
2019-01-10T06:40:30.756Z,1015.47
2019-01-10T06:41:40.196Z,1015.5
2019-01-10T06:42:50.184Z,1015.49
2019-01-10T06:43:59.978Z,1015.41
2019-01-10T06:45:09.973Z,1015.51
2019-01-10T06:46:19.907Z,1015.55
2019-01-10T06:47:31.728Z,1015.52
2019-01-10T06:48:41.410Z,1015.52
2019-01-10T06:49:51.121Z,1015.54
2019-01-10T06:51:01.058Z,1015.49
2019-01-10T06:52:10.758Z,1015.61
2019-01-10T06:53:20.781Z,1015.57
2019-01-10T06:54:30.483Z,1015.61
2019-01-10T06:55:42.504Z,1015.66
2019-01-10T06:56:52.332Z,1015.58
2019-01-10T06:58:02.290Z,1015.58
2019-01-10T06:59:11.988Z,1015.66
2019-01-10T07:00:21.459Z,1015.63
2019-01-10T07:01:31.420Z,1015.74
2019-01-10T07:02:41.221Z,1015.7
2019-01-10T07:03:51.156Z,1015.72
2019-01-10T07:05:01.036Z,1015.68
2019-01-10T07:06:11.468Z,1015.76
2019-01-10T07:07:21.171Z,1015.78
2019-01-10T07:08:32.461Z,1015.77
2019-01-10T07:09:42.570Z,1015.84
2019-01-10T07:10:52.359Z,1015.86
2019-01-10T07:12:02.061Z,1015.88
2019-01-10T07:13:12.874Z,1015.87
2019-01-10T07:14:23.080Z,1015.86
2019-01-10T07:15:32.772Z,1015.89
2019-01-10T07:16:53.236Z,1015.89
2019-01-10T07:18:03.544Z,1015.95
2019-01-10T07:19:13.242Z,1015.91
2019-01-10T07:20:23.193Z,1015.91
2019-01-10T07:21:33.204Z,1015.8
2019-01-10T07:22:43.163Z,1015.84
2019-01-10T07:23:53.254Z,1015.95
2019-01-10T07:25:03.700Z,1015.96
2019-01-10T07:26:13.696Z,1015.99
2019-01-10T07:27:23.422Z,1015.96
2019-01-10T07:28:33.134Z,1015.97
2019-01-10T07:29:43.097Z,1015.98
2019-01-10T07:30:52.550Z,1015.9
2019-01-10T07:32:02.504Z,1015.99
2019-01-10T07:33:12.474Z,1016
2019-01-10T07:34:22.186Z,1016.04
2019-01-10T07:35:32.157Z,1016.04
2019-01-10T07:36:41.642Z,1015.96
2019-01-10T07:37:51.639Z,1015.97
2019-01-10T07:39:01.371Z,1016.04
2019-01-10T07:40:11.065Z,1016.09
2019-01-10T07:41:20.787Z,1016.02
2019-01-10T07:42:30.537Z,1016.06
2019-01-10T07:43:40.366Z,1016.13
2019-01-10T07:44:50.333Z,1016.16
2019-01-10T07:46:07.754Z,1016.15
2019-01-10T07:47:17.722Z,1016.15
2019-01-10T07:48:27.164Z,1016.14
2019-01-10T07:49:36.861Z,1016.21
2019-01-10T07:50:46.812Z,1016.22
2019-01-10T07:51:56.787Z,1016.26
2019-01-10T07:53:06.770Z,1016.33
2019-01-10T07:54:16.748Z,1016.24
2019-01-10T07:55:26.454Z,1016.08
2019-01-10T07:56:36.640Z,1016.15
2019-01-10T07:57:46.577Z,1016.27
2019-01-10T07:58:56.534Z,1016.32
2019-01-10T08:00:06.496Z,1016.33
2019-01-10T08:01:16.038Z,1016.28
2019-01-10T08:02:25.995Z,1016.35
2019-01-10T08:03:35.980Z,1016.35
2019-01-10T08:04:45.922Z,1016.4
2019-01-10T08:05:55.898Z,1016.43
2019-01-10T08:07:07.506Z,1016.45
2019-01-10T08:08:17.449Z,1016.41
2019-01-10T08:09:27.397Z,1016.39
2019-01-10T08:10:36.830Z,1016.49
2019-01-10T08:11:46.787Z,1016.46
2019-01-10T08:13:05.619Z,1016.55
2019-01-10T08:14:15.335Z,1016.57
2019-01-10T08:15:25.026Z,1016.57
2019-01-10T08:16:35.415Z,1016.6
2019-01-10T08:17:45.453Z,1016.54
2019-01-10T08:18:55.459Z,1016.6
2019-01-10T08:20:05.178Z,1016.62
2019-01-10T08:21:15.746Z,1016.6
2019-01-10T08:22:27.893Z,1016.7
2019-01-10T08:23:37.653Z,1016.61
2019-01-10T08:24:47.598Z,1016.72
2019-01-10T08:25:57.058Z,1016.73
2019-01-10T08:27:07.017Z,1016.69
2019-01-10T08:28:16.973Z,1016.77
2019-01-10T08:29:26.423Z,1016.78
2019-01-10T08:30:36.513Z,1016.77
2019-01-10T08:31:45.969Z,1016.79
2019-01-10T08:32:55.399Z,1016.74
2019-01-10T08:34:05.428Z,1016.8
2019-01-10T08:35:15.371Z,1016.88
2019-01-10T08:36:32.292Z,1016.84
2019-01-10T08:37:42.307Z,1016.84
2019-01-10T08:38:52.263Z,1016.89
2019-01-10T08:40:01.950Z,1016.87
2019-01-10T08:41:13.865Z,1016.9
2019-01-10T08:42:23.431Z,1016.87
2019-01-10T08:43:33.104Z,1016.86
2019-01-10T08:44:42.795Z,1016.89
2019-01-10T08:45:52.613Z,1016.86
2019-01-10T08:47:02.326Z,1016.98
2019-01-10T08:48:12.285Z,1016.91
2019-01-10T08:49:22.591Z,1016.95
2019-01-10T08:50:32.552Z,1016.9
2019-01-10T08:51:42.498Z,1016.95
2019-01-10T08:52:52.220Z,1016.85
2019-01-10T08:54:02.187Z,1016.96
2019-01-10T08:55:12.130Z,1016.89
2019-01-10T08:56:21.820Z,1016.88
2019-01-10T08:57:31.774Z,1016.9
2019-01-10T08:58:41.477Z,1016.96
2019-01-10T08:59:51.436Z,1016.97
2019-01-10T09:01:01.391Z,1016.96
2019-01-10T09:02:11.346Z,1017
2019-01-10T09:03:21.302Z,1017
2019-01-10T09:04:31.244Z,1017.02
2019-01-10T09:05:40.943Z,1017.04
2019-01-10T09:06:50.918Z,1017.04
2019-01-10T09:08:00.863Z,1017.06
2019-01-10T09:09:10.803Z,1017.03
2019-01-10T09:10:19.988Z,1017.03
2019-01-10T09:11:29.425Z,1017.04
2019-01-10T09:12:39.374Z,1016.97
2019-01-10T09:13:49.303Z,1016.94
2019-01-10T09:14:59.255Z,1017.04
2019-01-10T09:16:09.193Z,1017.06
2019-01-10T09:17:18.916Z,1017
2019-01-10T09:18:28.737Z,1016.99
2019-01-10T09:19:38.443Z,1017.08
2019-01-10T09:20:48.385Z,1017.07
2019-01-10T09:22:07.071Z,1017.07
2019-01-10T09:23:17.028Z,1017.07
2019-01-10T09:24:26.991Z,1017.1
2019-01-10T09:25:36.675Z,1017.07
2019-01-10T09:26:46.375Z,1017.12
2019-01-10T09:27:56.354Z,1017.13
2019-01-10T09:29:06.058Z,1017.23
2019-01-10T09:30:16.015Z,1017.16
2019-01-10T09:31:25.984Z,1017.24
2019-01-10T09:32:35.932Z,1017.2
2019-01-10T09:33:45.953Z,1017.2
2019-01-10T09:34:55.659Z,1017.18
2019-01-10T09:36:05.364Z,1017.19
2019-01-10T09:37:14.798Z,1017.28
2019-01-10T09:38:24.505Z,1017.29
2019-01-10T09:39:34.483Z,1017.33
2019-01-10T09:40:44.444Z,1017.3
2019-01-10T09:41:54.373Z,1017.32
2019-01-10T09:43:04.386Z,1017.31
2019-01-10T09:44:14.086Z,1017.38
2019-01-10T09:45:23.361Z,1017.37
2019-01-10T09:46:33.066Z,1017.37
2019-01-10T09:47:42.754Z,1017.41
2019-01-10T09:48:52.695Z,1017.46
2019-01-10T09:50:02.396Z,1017.53
2019-01-10T09:51:12.354Z,1017.49
2019-01-10T09:52:22.070Z,1017.53
2019-01-10T09:53:32.052Z,1017.53
2019-01-10T09:54:41.981Z,1017.55
2019-01-10T09:55:52.017Z,1017.57
2019-01-10T09:57:01.977Z,1017.58
2019-01-10T09:58:12.173Z,1017.59
2019-01-10T09:59:21.957Z,1017.6
2019-01-10T10:00:31.433Z,1017.6
2019-01-10T10:01:41.380Z,1017.62
2019-01-10T10:02:51.333Z,1017.59
2019-01-10T10:04:01.142Z,1017.51
2019-01-10T10:05:10.869Z,1017.58
2019-01-10T10:06:20.310Z,1017.57
2019-01-10T10:07:30.285Z,1017.53
2019-01-10T10:08:40.273Z,1017.65
2019-01-10T10:09:50.230Z,1017.58
2019-01-10T10:11:00.265Z,1017.63
2019-01-10T10:12:10.001Z,1017.62
2019-01-10T10:13:19.953Z,1017.62
2019-01-10T10:14:29.899Z,1017.63
2019-01-10T10:15:39.997Z,1017.58
2019-01-10T10:16:57.811Z,1017.55
2019-01-10T10:18:07.845Z,1017.58
2019-01-10T10:19:18.081Z,1017.62
2019-01-10T10:20:27.804Z,1017.56
2019-01-10T10:21:37.828Z,1017.63
2019-01-10T10:22:47.530Z,1017.62
2019-01-10T10:23:57.245Z,1017.61
2019-01-10T10:25:06.951Z,1017.58
2019-01-10T10:26:16.894Z,1017.54
2019-01-10T10:27:26.585Z,1017.62
2019-01-10T10:28:36.567Z,1017.59
2019-01-10T10:29:46.529Z,1017.6
2019-01-10T10:30:56.477Z,1017.62
2019-01-10T10:32:06.437Z,1017.59
2019-01-10T10:33:16.153Z,1017.61
2019-01-10T10:34:26.135Z,1017.59
2019-01-10T10:35:35.835Z,1017.51
2019-01-10T10:36:46.133Z,1017.61
2019-01-10T10:37:56.102Z,1017.53
2019-01-10T10:39:06.062Z,1017.58
2019-01-10T10:40:15.508Z,1017.56
2019-01-10T10:41:25.321Z,1017.55
2019-01-10T10:42:35.298Z,1017.53
2019-01-10T10:43:45.301Z,1017.5
2019-01-10T10:44:55.022Z,1017.53
2019-01-10T10:46:04.727Z,1017.52
2019-01-10T10:47:14.451Z,1017.57
2019-01-10T10:48:23.974Z,1017.56
2019-01-10T10:49:33.690Z,1017.55
2019-01-10T10:50:43.665Z,1017.49
2019-01-10T10:51:53.629Z,1017.52
2019-01-10T10:53:03.587Z,1017.52
2019-01-10T10:54:13.055Z,1017.52
2019-01-10T10:55:22.757Z,1017.49
2019-01-10T10:56:32.959Z,1017.49
2019-01-10T10:57:42.671Z,1017.48
2019-01-10T10:58:52.658Z,1017.44
2019-01-10T11:00:02.356Z,1017.45
2019-01-10T11:01:12.349Z,1017.4
2019-01-10T11:02:22.317Z,1017.39
2019-01-10T11:03:32.306Z,1017.43
2019-01-10T11:04:43.917Z,1017.5
2019-01-10T11:05:53.891Z,1017.45
2019-01-10T11:07:03.599Z,1017.5
2019-01-10T11:08:13.559Z,1017.38
2019-01-10T11:09:23.515Z,1017.36
2019-01-10T11:10:33.234Z,1017.39
2019-01-10T11:11:42.686Z,1017.41
2019-01-10T11:12:52.674Z,1017.45
2019-01-10T11:14:02.641Z,1017.38
2019-01-10T11:15:12.595Z,1017.41
2019-01-10T11:16:22.552Z,1017.39
2019-01-10T11:17:32.505Z,1017.37
2019-01-10T11:18:42.507Z,1017.46
2019-01-10T11:19:52.481Z,1017.47
2019-01-10T11:21:02.451Z,1017.46
2019-01-10T11:22:12.153Z,1017.45
2019-01-10T11:23:21.607Z,1017.42
2019-01-10T11:24:31.311Z,1017.39
2019-01-10T11:25:40.778Z,1017.4
2019-01-10T11:26:49.989Z,1017.35
2019-01-10T11:28:01.133Z,1017.4
2019-01-10T11:29:11.103Z,1017.39
2019-01-10T11:30:21.070Z,1017.4
2019-01-10T11:31:30.775Z,1017.35
2019-01-10T11:32:40.729Z,1017.38
2019-01-10T11:33:50.180Z,1017.36
2019-01-10T11:35:00.173Z,1017.36
2019-01-10T11:36:10.156Z,1017.34
2019-01-10T11:37:20.127Z,1017.38
2019-01-10T11:38:30.080Z,1017.37
2019-01-10T11:39:40.037Z,1017.32
2019-01-10T11:40:49.745Z,1017.39
2019-01-10T11:41:59.441Z,1017.39
2019-01-10T11:43:09.393Z,1017.39
2019-01-10T11:44:19.085Z,1017.36
2019-01-10T11:45:29.283Z,1017.41
2019-01-10T11:46:39.231Z,1017.41
2019-01-10T11:47:48.944Z,1017.41
2019-01-10T11:48:58.399Z,1017.37
2019-01-10T11:50:08.115Z,1017.35
2019-01-10T11:51:17.811Z,1017.37
2019-01-10T11:52:27.507Z,1017.33
2019-01-10T11:53:37.464Z,1017.38
2019-01-10T11:54:47.403Z,1017.36
2019-01-10T11:55:57.414Z,1017.28
2019-01-10T11:57:07.359Z,1017.26
2019-01-10T11:58:17.069Z,1017.27
2019-01-10T11:59:27.031Z,1017.26
2019-01-10T12:00:36.729Z,1017.31
2019-01-10T12:01:46.689Z,1017.31
2019-01-10T12:02:56.408Z,1017.34
2019-01-10T12:04:06.369Z,1017.31
2019-01-10T12:05:16.341Z,1017.38
2019-01-10T12:06:25.805Z,1017.33
2019-01-10T12:07:35.499Z,1017.24
2019-01-10T12:08:45.217Z,1017.26
2019-01-10T12:09:55.264Z,1017.28
2019-01-10T12:11:04.997Z,1017.29
2019-01-10T12:12:14.950Z,1017.37
2019-01-10T12:13:24.657Z,1017.31
2019-01-10T12:14:34.401Z,1017.2
2019-01-10T12:15:44.101Z,1017.22
2019-01-10T12:16:54.088Z,1017.23
2019-01-10T12:18:04.034Z,1017.21
2019-01-10T12:19:14.017Z,1017.23
2019-01-10T12:20:23.715Z,1017.19
2019-01-10T12:21:33.421Z,1017.23
2019-01-10T12:22:43.316Z,1017.22
2019-01-10T12:23:53.258Z,1017.2
2019-01-10T12:25:03.221Z,1017.21
2019-01-10T12:26:12.911Z,1017.35
2019-01-10T12:27:22.621Z,1017.28
2019-01-10T12:28:32.062Z,1017.21
2019-01-10T12:29:41.774Z,1017.19
2019-01-10T12:30:51.485Z,1017.2
2019-01-10T12:32:01.436Z,1017.21
2019-01-10T12:33:10.899Z,1017.19
2019-01-10T12:34:20.619Z,1017.27
2019-01-10T12:35:30.374Z,1017.27
2019-01-10T12:36:39.824Z,1017.2
2019-01-10T12:37:49.528Z,1017.28
2019-01-10T12:38:59.341Z,1017.28
2019-01-10T12:40:11.217Z,1017.25
2019-01-10T12:41:21.194Z,1017.28
2019-01-10T12:42:30.931Z,1017.2
2019-01-10T12:43:40.697Z,1017.27
2019-01-10T12:44:50.724Z,1017.3
2019-01-10T12:46:00.747Z,1017.26
2019-01-10T12:47:11.353Z,1017.27
2019-01-10T12:48:21.418Z,1017.28
2019-01-10T12:49:31.371Z,1017.29
2019-01-10T12:50:41.337Z,1017.31
2019-01-10T12:51:51.031Z,1017.33
2019-01-10T12:53:00.996Z,1017.35
2019-01-10T12:54:11.104Z,1017.35
2019-01-10T12:55:22.553Z,1017.31
2019-01-10T12:56:32.588Z,1017.35
2019-01-10T12:57:42.542Z,1017.34
2019-01-10T12:58:52.246Z,1017.37
2019-01-10T13:00:01.956Z,1017.33
2019-01-10T13:01:11.987Z,1017.39
2019-01-10T13:02:21.980Z,1017.39
2019-01-10T13:03:31.944Z,1017.4
2019-01-10T13:04:41.655Z,1017.45
2019-01-10T13:05:51.605Z,1017.45
2019-01-10T13:07:01.619Z,1017.4
2019-01-10T13:08:10.836Z,1017.39
2019-01-10T13:09:20.809Z,1017.41
2019-01-10T13:10:30.785Z,1017.38
2019-01-10T13:11:40.318Z,1017.4
2019-01-10T13:12:50.267Z,1017.43
2019-01-10T13:13:59.992Z,1017.5
2019-01-10T13:15:14.180Z,1017.45
2019-01-10T13:16:23.953Z,1017.41
2019-01-10T13:17:33.944Z,1017.42
2019-01-10T13:18:43.758Z,1017.43
2019-01-10T13:19:53.492Z,1017.42
2019-01-10T13:21:03.222Z,1017.38
2019-01-10T13:22:14.991Z,1017.42
2019-01-10T13:23:24.996Z,1017.4
2019-01-10T13:24:35.165Z,1017.41
2019-01-10T13:25:47.059Z,1017.45
2019-01-10T13:27:04.942Z,1017.42
2019-01-10T13:28:14.947Z,1017.4
2019-01-10T13:29:24.652Z,1017.44
2019-01-10T13:30:34.390Z,1017.38
2019-01-10T13:31:46.386Z,1017.41
2019-01-10T13:32:56.093Z,1017.4
2019-01-10T13:34:05.812Z,1017.42
2019-01-10T13:35:15.770Z,1017.42
2019-01-10T13:36:25.892Z,1017.42
2019-01-10T13:37:35.843Z,1017.4
2019-01-10T13:38:45.544Z,1017.41
2019-01-10T13:39:55.243Z,1017.37
2019-01-10T13:41:04.935Z,1017.36
2019-01-10T13:42:15.682Z,1017.43
2019-01-10T13:43:25.387Z,1017.44
2019-01-10T13:44:35.354Z,1017.42
2019-01-10T13:45:46.113Z,1017.4
2019-01-10T13:46:58.093Z,1017.4
2019-01-10T13:48:08.050Z,1017.36
2019-01-10T13:49:17.742Z,1017.45
2019-01-10T13:50:27.678Z,1017.45
2019-01-10T13:51:37.142Z,1017.43
2019-01-10T13:52:46.844Z,1017.45
2019-01-10T13:53:56.825Z,1017.49
2019-01-10T13:55:07.009Z,1017.47
2019-01-10T13:56:16.752Z,1017.48
2019-01-10T13:57:28.156Z,1017.47
2019-01-10T13:58:38.196Z,1017.52
2019-01-10T13:59:47.898Z,1017.48
2019-01-10T14:00:57.856Z,1017.5
2019-01-10T14:02:07.838Z,1017.49
2019-01-10T14:03:17.531Z,1017.46
2019-01-10T14:04:27.749Z,1017.53
2019-01-10T14:05:37.812Z,1017.47
2019-01-10T14:06:47.528Z,1017.44
2019-01-10T14:07:57.501Z,1017.49
2019-01-10T14:09:07.462Z,1017.47
2019-01-10T14:10:17.412Z,1017.49